Aviation Digital Data Service (ADDS)

Output produced by METARs form (2055 UTC 22 June 2018)
found at http://aviationweather.gov/adds/metars/
 
KBFD 222019Z 2220/2318 14010G20KT P6SM -SHRA BKN025 OVC090 
     FM222200 14010KT 5SM SHRA BR OVC020 
     FM230300 14010KT P6SM VCSH OVC010 
     FM230900 15010KT P6SM VCSH OVC005 
     FM231200 15009KT 6SM BR OVC007 
     PROB30 2312/2313 4SM -SHRA OVC007